.
WxDataArchive / Data Records for 2012-05-06
2012-05-05 May 2012 2012-05-07

Data Records for Sunday, 06 May 2012

Time	Temp	Chill	HIndex	Humid	Dewpt	 Wind 	HiWind	WindDir	Rain 	Barom 
-----	----	-----	------	-----	-----	------	------	-------	-----	----- 
00:00	59.8	59.8	59.8	78	52.9	0	1	112	0.00	30.044 
00:05	59.6	59.6	59.6	78	52.7	0	1	112	0.00	30.044 
00:10	59.5	59.5	59.5	78	52.6	0	4	112	0.00	30.044 
00:15	59.5	59.5	59.5	79	53.0	1	3	112	0.00	30.041 
00:20	59.5	59.5	59.5	79	53.0	0	2	112	0.00	30.041 
00:25	59.3	59.3	59.3	79	52.8	0	2	112	0.00	30.041 
00:30	59.2	59.2	59.2	79	52.7	0	2	112	0.00	30.040 
00:35	59.0	59.0	59.0	80	52.8	1	4	112	0.00	30.040 
00:40	59.0	59.0	59.0	80	52.8	1	3	112	0.00	30.040 
00:45	58.9	58.9	58.9	80	52.7	1	3	68	0.00	30.038 
00:50	58.7	58.7	58.7	81	52.9	1	4	68	0.00	30.038 
00:55	58.7	58.7	58.7	81	52.9	1	3	68	0.00	30.038 
01:00	58.6	58.6	58.6	81	52.8	1	3	68	0.00	30.039 
01:05	58.4	58.4	58.4	81	52.6	1	3	68	0.00	30.039 
01:10	58.3	58.3	58.3	81	52.5	1	5	68	0.00	30.039 
01:15	58.3	58.3	58.3	81	52.5	1	3	90	0.00	30.028 
01:20	58.1	58.1	58.1	80	52.0	2	4	68	0.00	30.028 
01:25	58.0	58.0	58.0	80	51.9	2	4	90	0.00	30.028 
01:30	57.8	57.8	57.8	80	51.7	2	3	90	0.00	30.020 
01:35	57.6	57.6	57.6	79	51.1	2	4	90	0.00	30.020 
01:40	57.5	57.5	57.5	78	50.7	1	5	90	0.00	30.020 
01:45	57.5	57.5	57.5	78	50.7	1	4	90	0.00	30.016 
01:50	57.3	57.3	57.3	78	50.5	1	4	90	0.00	30.016 
01:55	57.2	57.2	57.2	78	50.4	1	3	90	0.00	30.016 
02:00	56.9	56.9	56.9	77	49.8	2	6	90	0.00	30.012 
02:05	56.7	56.7	56.7	75	48.9	1	4	90	0.00	30.012 
02:10	56.6	56.6	56.6	73	48.0	2	5	90	0.00	30.012 
02:15	56.5	56.5	56.5	72	47.6	1	4	90	0.00	30.008 
02:20	56.3	56.3	56.3	72	47.4	1	4	68	0.00	30.008 
02:25	56.2	56.2	56.2	71	46.9	1	4	90	0.00	30.008 
02:30	56.0	56.0	56.0	72	47.1	1	5	68	0.00	30.008 
02:35	55.9	55.9	55.9	71	46.6	2	4	90	0.00	30.008 
02:40	55.7	55.7	55.7	71	46.4	1	3	90	0.00	30.008 
02:45	55.4	55.4	55.4	71	46.2	1	5	68	0.00	29.997 
02:50	55.3	55.3	55.3	71	46.1	1	4	68	0.00	29.997 
02:55	55.1	55.1	55.1	71	45.9	0	3	45	0.00	29.997 
03:00	55.0	55.0	55.0	71	45.8	1	3	45	0.00	30.000 
03:05	54.8	54.8	54.8	71	45.6	1	3	135	0.00	30.000 
03:10	54.7	54.7	54.7	72	45.9	0	3	90	0.00	30.000 
03:15	54.5	54.5	54.5	72	45.7	0	3	90	0.00	29.997 
03:20	54.4	54.4	54.4	72	45.6	0	2	90	0.00	29.997 
03:25	54.2	54.2	54.2	72	45.4	0	1	90	0.00	29.997 
03:30	54.1	54.1	54.1	73	45.6	0	0	---	0.00	30.009 
03:35	53.9	53.9	53.9	73	45.4	0	0	---	0.00	30.009 
03:40	53.8	53.8	53.8	74	45.7	0	0	---	0.00	30.009 
03:45	53.6	53.6	53.6	75	45.9	0	0	---	0.00	30.011 
03:50	53.3	53.3	53.3	76	45.9	0	0	---	0.00	30.011 
03:55	53.2	53.2	53.2	77	46.2	0	0	---	0.00	30.011 
04:00	52.9	52.9	52.9	78	46.2	0	2	90	0.00	29.999 
04:05	52.8	52.8	52.8	78	46.1	1	2	90	0.00	29.999 
04:10	52.8	52.8	52.8	78	46.1	0	3	90	0.00	29.999 
04:15	52.8	52.8	52.8	77	45.8	1	3	90	0.00	30.001 
04:20	52.8	52.8	52.8	78	46.1	0	2	90	0.00	30.001 
04:25	52.8	52.8	52.8	78	46.1	0	1	90	0.00	30.001 
04:30	52.6	52.6	52.6	78	45.9	0	0	---	0.00	30.012 
04:35	52.5	52.5	52.5	78	45.8	0	0	---	0.00	30.012 
04:40	52.2	52.2	52.2	78	45.5	0	0	---	0.00	30.012 
04:45	52.0	52.0	52.0	79	45.7	0	0	---	0.00	30.025 
04:50	51.9	51.9	51.9	79	45.6	0	0	---	0.00	30.025 
04:55	51.7	51.7	51.7	80	45.7	0	0	---	0.00	30.025 
05:00	51.6	51.6	51.6	81	46.0	0	0	---	0.00	30.031 
05:05	51.4	51.4	51.4	81	45.8	0	0	---	0.00	30.031 
05:10	51.4	51.4	51.4	81	45.8	0	0	---	0.00	30.031 
05:15	51.4	51.4	51.4	82	46.1	0	0	---	0.00	30.035 
05:20	51.3	51.3	51.3	82	46.0	0	0	---	0.00	30.035 
05:25	51.4	51.4	51.4	82	46.1	0	1	90	0.00	30.035 
05:30	51.4	51.4	51.4	82	46.1	0	1	90	0.00	30.038 
05:35	51.6	51.6	51.6	82	46.3	0	1	90	0.00	30.038 
05:40	51.9	51.9	51.9	81	46.3	0	3	90	0.00	30.038 
05:45	52.2	52.2	52.2	79	45.9	0	3	90	0.00	30.034 
05:50	52.5	52.5	52.5	77	45.5	1	5	90	0.00	30.034 
05:55	52.9	52.9	52.9	77	45.9	1	3	90	0.00	30.034 
06:00	52.9	52.9	52.9	77	45.9	1	4	90	0.00	30.032 
06:05	52.9	52.9	52.9	77	45.9	1	3	90	0.00	30.032 
06:10	52.9	52.9	52.9	77	45.9	1	3	90	0.00	30.032 
06:15	52.9	52.9	52.9	76	45.5	0	4	90	0.00	30.036 
06:20	53.1	53.1	53.1	76	45.7	1	3	90	0.00	30.036 
06:25	53.1	53.1	53.1	77	46.1	1	2	90	0.00	30.036 
06:30	53.1	53.1	53.1	77	46.1	1	2	90	0.00	30.040 
06:35	52.9	52.9	52.9	77	45.9	1	3	90	0.00	30.040 
06:40	52.9	52.9	52.9	77	45.9	0	2	90	0.00	30.040 
06:45	52.9	52.9	52.9	77	45.9	1	4	90	0.00	30.049 
06:50	52.9	52.9	52.9	77	45.9	2	5	68	0.00	30.049 
06:55	52.9	52.9	52.9	77	45.9	1	4	90	0.00	30.049 
07:00	52.9	52.9	52.9	77	45.9	0	3	90	0.00	30.055 
07:05	52.9	52.9	52.9	77	45.9	1	4	90	0.00	30.055 
07:10	52.9	52.9	52.9	77	45.9	2	4	90	0.00	30.055 
07:15	52.9	52.9	52.9	77	45.9	1	4	90	0.00	30.067 
07:20	52.9	52.9	52.9	77	45.9	1	3	90	0.00	30.067 
07:25	53.1	53.1	53.1	77	46.1	2	6	90	0.00	30.067 
07:30	53.1	53.1	53.1	77	46.1	2	5	112	0.00	30.067 
07:35	53.2	53.2	53.2	77	46.2	2	4	112	0.00	30.067 
07:40	53.5	53.5	53.5	76	46.1	2	6	112	0.00	30.067 
07:45	53.8	53.8	53.8	75	46.1	2	4	68	0.00	30.069 
07:50	54.2	54.2	54.2	75	46.4	2	5	90	0.00	30.069 
07:55	54.7	54.7	54.7	74	46.6	2	4	112	0.00	30.069 
08:00	55.0	55.0	55.0	74	46.9	2	4	90	0.00	30.067 
08:05	55.1	55.1	55.1	75	47.3	2	5	90	0.00	30.067 
08:10	55.3	55.3	55.3	74	47.2	3	7	68	0.00	30.067 
08:15	55.7	55.7	55.7	73	47.2	2	6	90	0.00	30.069 
08:20	55.7	55.7	55.7	72	46.8	3	7	90	0.00	30.069 
08:25	56.2	56.2	56.2	72	47.3	2	5	90	0.00	30.069 
08:30	56.6	56.6	56.6	71	47.3	2	5	68	0.00	30.066 
08:35	56.9	56.9	56.9	70	47.2	3	6	112	0.00	30.066 
08:40	57.2	57.2	57.2	69	47.1	2	7	112	0.00	30.066 
08:45	57.5	57.5	57.5	69	47.4	3	7	112	0.00	30.071 
08:50	57.6	57.6	57.6	68	47.1	3	10	90	0.00	30.071 
08:55	58.1	58.1	58.1	69	48.0	2	3	112	0.00	30.071 
09:00	58.4	58.4	58.4	67	47.5	2	10	112	0.00	30.078 
09:05	58.7	58.7	58.7	66	47.4	3	9	90	0.00	30.078 
09:10	59.0	59.0	59.0	66	47.7	2	5	90	0.00	30.078 
09:15	59.6	59.6	59.6	65	47.8	1	4	90	0.00	30.080 
09:20	59.9	59.9	59.9	65	48.1	2	6	112	0.00	30.080 
09:25	60.1	60.1	60.1	62	47.0	2	4	112	0.00	30.080 
09:30	60.4	60.4	60.4	64	48.2	2	4	90	0.00	30.080 
09:35	61.0	61.0	61.0	62	47.9	2	5	90	0.00	30.080 
09:40	61.3	61.3	61.3	60	47.3	2	6	68	0.00	30.080 
09:45	61.8	61.8	61.8	57	46.4	2	6	90	0.00	30.069 
09:50	62.1	62.1	62.1	55	45.7	3	6	90	0.00	30.069 
09:55	62.3	62.3	62.3	55	45.9	3	7	112	0.00	30.069 
10:00	62.4	62.4	62.4	56	46.5	2	7	90	0.00	30.061 
10:05	62.7	62.7	62.7	53	45.3	3	4	90	0.00	30.061 
10:10	63.2	63.2	63.2	54	46.3	2	4	112	0.00	30.061 
10:15	63.7	63.7	63.7	55	47.2	2	7	68	0.00	30.050 
10:20	63.9	63.9	63.9	54	46.9	2	5	90	0.00	30.050 
10:25	64.2	64.2	64.2	51	45.7	3	6	90	0.00	30.050 
10:30	64.8	64.8	64.8	51	46.2	1	5	112	0.00	30.050 
10:35	65.3	65.3	65.3	50	46.2	2	6	112	0.00	30.050 
10:40	66.1	66.1	66.1	46	44.7	2	5	112	0.00	30.050 
10:45	66.4	66.4	66.4	44	43.8	2	4	112	0.00	30.047 
10:50	67.1	67.1	67.1	46	45.6	1	4	68	0.00	30.047 
10:55	67.6	67.6	67.6	45	45.5	2	9	90	0.00	30.047 
11:00	67.8	67.8	67.8	44	45.1	2	5	90	0.00	30.045 
11:05	67.6	67.6	67.6	46	46.1	1	4	90	0.00	30.045 
11:10	67.6	67.6	67.6	42	43.7	2	5	90	0.00	30.045 
11:15	67.9	67.9	67.9	44	45.2	1	4	68	0.00	30.044 
11:20	68.6	68.6	68.6	43	45.2	2	5	112	0.00	30.044 
11:25	69.6	69.6	69.6	40	44.2	1	4	112	0.00	30.044 
11:30	70.6	70.6	70.6	40	45.1	2	5	112	0.00	30.044 
11:35	70.8	70.8	70.8	37	43.2	3	5	112	0.00	30.044 
11:40	70.8	70.8	70.8	38	43.9	3	6	112	0.00	30.044 
11:45	70.8	70.8	70.8	39	44.6	3	6	112	0.00	30.032 
11:50	70.8	70.8	70.8	38	43.9	2	6	90	0.00	30.032 
11:55	70.9	70.9	70.9	39	44.7	2	5	112	0.00	30.032 
12:00	71.3	71.3	71.3	36	43.0	3	6	112	0.00	30.030 
12:05	71.5	71.5	71.5	39	45.2	3	7	90	0.00	30.030 
12:10	72.0	72.0	72.0	38	45.0	2	6	90	0.00	30.030 
12:15	72.5	72.5	72.5	34	42.5	3	7	90	0.00	30.023 
12:20	72.5	72.5	72.5	36	44.0	3	8	90	0.00	30.023 
12:25	72.5	72.5	72.5	34	42.5	3	7	90	0.00	30.023 
12:30	73.0	73.0	73.0	38	45.9	2	5	90	0.00	30.027 
12:35	73.5	73.5	73.5	36	44.9	2	7	112	0.00	30.027 
12:40	73.7	73.7	73.7	33	42.8	3	7	68	0.00	30.027 
12:45	74.0	74.0	74.0	35	44.6	2	5	90	0.00	30.027 
12:50	74.4	74.4	74.4	36	45.7	2	5	112	0.00	30.027 
12:55	74.7	74.7	74.7	36	46.0	1	4	90	0.00	30.027 
13:00	74.7	74.7	74.7	32	42.9	2	6	90	0.00	30.025 
13:05	74.6	74.6	74.6	35	45.1	3	10	90	0.00	30.025 
13:10	74.4	74.4	74.4	35	44.9	3	6	90	0.00	30.025 
13:15	74.6	74.6	74.6	35	45.1	2	6	112	0.00	30.022 
13:20	74.7	74.7	74.7	31	42.0	3	8	90	0.00	30.022 
13:25	75.1	75.1	77.3	35	45.6	2	5	112	0.00	30.022 
13:30	75.4	75.4	77.3	33	44.3	3	7	112	0.00	30.027 
13:35	75.3	75.3	77.2	32	43.4	3	8	90	0.00	30.027 
13:40	74.9	74.9	74.9	34	44.6	3	6	90	0.00	30.027 
13:45	74.7	74.7	74.7	32	42.9	3	7	90	0.00	30.019 
13:50	74.7	74.7	74.7	33	43.7	3	5	90	0.00	30.019 
13:55	74.9	74.9	74.9	32	43.0	2	4	112	0.00	30.019 
14:00	75.1	75.1	77.2	34	44.8	1	4	90	0.00	30.029 
14:05	75.6	75.6	77.4	34	45.2	2	6	90	0.00	30.029 
14:10	76.0	76.0	77.6	35	46.4	2	7	90	0.00	30.029 
14:15	76.1	76.1	77.6	35	46.4	3	7	112	0.00	30.028 
14:20	76.1	76.1	77.7	37	47.9	2	9	112	0.00	30.028 
14:25	76.3	76.3	77.6	34	45.8	3	9	90	0.00	30.028 
14:30	76.5	76.5	77.7	33	45.2	2	5	90	0.00	30.028 
14:35	76.3	76.3	77.6	33	45.1	2	9	90	0.00	30.028 
14:40	76.3	76.3	77.7	36	47.4	2	6	112	0.00	30.028 
14:45	76.5	76.5	77.8	35	46.8	2	5	90	0.00	30.028 
14:50	76.8	76.8	77.9	36	47.8	2	5	112	0.00	30.028 
14:55	76.8	76.8	77.7	32	44.7	2	6	90	0.00	30.028 
15:00	77.0	77.0	77.9	34	46.5	3	7	90	0.00	30.021 
15:05	77.2	77.2	77.9	33	45.8	2	6	112	0.00	30.021 
15:10	77.0	77.0	77.9	34	46.5	3	6	90	0.00	30.021 
15:15	77.0	77.0	78.0	36	48.0	2	6	45	0.00	30.008 
15:20	76.8	76.8	77.9	35	47.1	3	6	112	0.00	30.008 
15:25	76.5	76.5	77.8	36	47.5	2	6	90	0.00	30.008 
15:30	76.3	76.3	77.6	34	45.8	2	6	112	0.00	29.997 
15:35	76.1	76.1	77.7	36	47.2	2	7	90	0.00	29.997 
15:40	76.1	76.1	77.6	35	46.4	2	6	90	0.00	29.997 
15:45	76.5	76.5	77.8	35	46.8	2	5	90	0.00	30.004 
15:50	76.5	76.5	77.9	37	48.3	2	5	90	0.00	30.004 
15:55	76.5	76.5	77.9	37	48.3	2	5	68	0.00	30.004 
16:00	76.3	76.3	77.7	36	47.4	2	6	112	0.00	30.003 
16:05	76.5	76.5	77.8	36	47.5	3	10	112	0.00	30.003 
16:10	76.7	76.7	77.9	36	47.7	2	6	112	0.00	30.003 
16:15	76.8	76.8	77.9	35	47.1	2	9	90	0.00	30.003 
16:20	77.0	77.0	78.0	35	47.2	1	9	112	0.00	30.003 
16:25	77.0	77.0	78.0	35	47.2	2	5	68	0.00	30.003 
16:30	77.0	77.0	78.1	38	49.4	1	6	112	0.00	29.998 
16:35	76.8	76.8	77.8	34	46.3	3	5	90	0.00	29.998 
16:40	76.5	76.5	77.7	34	46.0	2	5	90	0.00	29.998 
16:45	76.3	76.3	77.6	34	45.8	3	6	112	0.00	29.987 
16:50	76.1	76.1	77.6	35	46.4	1	4	90	0.00	29.987 
16:55	76.0	76.0	77.6	36	47.1	2	7	112	0.00	29.987 
17:00	75.8	75.8	77.5	35	46.2	3	9	68	0.00	29.980 
17:05	75.6	75.6	77.5	36	46.7	3	7	90	0.00	29.980 
17:10	75.4	75.4	77.5	37	47.3	3	9	90	0.00	29.980 
17:15	75.3	75.3	77.4	36	46.5	3	11	90	0.00	29.967 
17:20	75.3	75.3	77.5	38	47.9	3	7	112	0.00	29.967 
17:25	75.3	75.3	77.5	37	47.2	2	5	90	0.00	29.967 
17:30	75.4	75.4	77.6	39	48.7	3	5	90	0.00	29.962 
17:35	75.4	75.4	77.5	37	47.3	3	6	90	0.00	29.962 
17:40	75.3	75.3	77.5	38	47.9	3	9	90	0.00	29.962 
17:45	75.3	75.3	77.5	39	48.6	3	7	90	0.00	29.970 
17:50	75.3	75.3	77.5	39	48.6	2	7	90	0.00	29.970 
17:55	75.3	75.3	77.5	39	48.6	3	7	90	0.00	29.970 
18:00	75.3	75.3	77.6	41	50.0	3	10	90	0.00	29.966 
18:05	75.3	75.3	77.5	39	48.6	3	7	112	0.00	29.966 
18:10	74.9	74.9	74.9	39	48.3	3	7	112	0.00	29.966 
18:15	74.6	74.6	74.6	39	48.0	4	7	90	0.00	29.958 
18:20	74.4	74.4	74.4	42	49.8	2	4	90	0.00	29.958 
18:25	74.4	74.4	74.4	40	48.5	4	9	90	0.00	29.958 
18:30	74.2	74.2	74.2	42	49.6	3	6	112	0.00	29.950 
18:35	73.9	73.9	73.9	42	49.3	3	7	112	0.00	29.950 
18:40	73.5	73.5	73.5	42	49.0	2	6	90	0.00	29.950 
18:45	73.2	73.2	73.2	40	47.4	4	10	90	0.00	29.951 
18:50	72.5	72.5	72.5	39	46.1	3	7	112	0.00	29.951 
18:55	72.0	72.0	72.0	39	45.7	3	7	90	0.00	29.951 
19:00	71.5	71.5	71.5	39	45.2	2	6	112	0.00	29.954 
19:05	71.1	71.1	71.1	39	44.9	3	9	112	0.00	29.954 
19:10	70.8	70.8	70.8	38	43.9	3	6	90	0.00	29.954 
19:15	70.6	70.6	70.6	38	43.7	2	9	90	0.00	29.954 
19:20	70.3	70.3	70.3	38	43.5	2	6	90	0.00	29.954 
19:25	69.8	69.8	69.8	36	41.6	3	9	90	0.00	29.954 
19:30	69.3	69.3	69.3	36	41.2	3	6	90	0.00	29.955 
19:35	68.8	68.8	68.8	35	40.0	4	10	90	0.00	29.955 
19:40	68.6	68.6	68.6	36	40.6	2	4	90	0.00	29.955 
19:45	68.3	68.3	68.3	35	39.6	3	5	90	0.00	29.966 
19:50	68.1	68.1	68.1	36	40.1	2	5	90	0.00	29.966 
19:55	67.8	67.8	67.8	36	39.9	2	5	90	0.00	29.966 
20:00	67.3	67.3	67.3	34	38.0	3	6	90	0.00	29.969 
20:05	66.9	66.9	66.9	34	37.6	3	5	68	0.00	29.969 
20:10	66.6	66.6	66.6	34	37.3	3	9	112	0.00	29.969 
20:15	66.3	66.3	66.3	34	37.1	2	4	68	0.00	29.964 
20:20	66.0	66.0	66.0	35	37.6	1	3	68	0.00	29.964 
20:25	65.6	65.6	65.6	35	37.2	2	6	90	0.00	29.964 
20:30	65.3	65.3	65.3	35	36.9	3	7	90	0.00	29.946 
20:35	64.8	64.8	64.8	32	34.2	3	7	90	0.00	29.946 
20:40	64.5	64.5	64.5	31	33.2	2	6	90	0.00	29.946 
20:45	64.2	64.2	64.2	31	32.9	2	5	90	0.00	29.951 
20:50	64.0	64.0	64.0	31	32.8	2	4	90	0.00	29.951 
20:55	63.7	63.7	63.7	31	32.5	2	5	90	0.00	29.951 
21:00	63.5	63.5	63.5	33	33.9	2	5	90	0.00	29.950 
21:05	63.2	63.2	63.2	32	32.9	2	5	90	0.00	29.950 
21:10	63.1	63.1	63.1	33	33.5	2	6	90	0.00	29.950 
21:15	62.9	62.9	62.9	34	34.1	2	5	90	0.00	29.952 
21:20	62.7	62.7	62.7	36	35.4	2	4	112	0.00	29.952 
21:25	62.6	62.6	62.6	36	35.3	2	4	68	0.00	29.952 
21:30	62.4	62.4	62.4	36	35.1	2	5	90	0.00	29.948 
21:35	62.3	62.3	62.3	37	35.7	2	5	68	0.00	29.948 
21:40	62.3	62.3	62.3	36	35.0	3	6	90	0.00	29.948 
21:45	62.1	62.1	62.1	34	33.4	3	6	90	0.00	29.940 
21:50	62.1	62.1	62.1	35	34.1	2	5	90	0.00	29.940 
21:55	62.0	62.0	62.0	33	32.6	3	5	90	0.00	29.940 
22:00	62.0	62.0	62.0	30	30.2	3	6	112	0.00	29.936 
22:05	62.0	62.0	62.0	29	29.4	2	5	90	0.00	29.936 
22:10	62.0	62.0	62.0	29	29.4	2	5	90	0.00	29.936 
22:15	61.8	61.8	61.8	31	30.8	3	5	90	0.00	29.933 
22:20	61.6	61.6	61.6	31	30.7	3	6	90	0.00	29.933 
22:25	61.5	61.5	61.5	33	32.1	3	7	90	0.00	29.933 
22:30	61.3	61.3	61.3	35	33.4	2	6	90	0.00	29.938 
22:35	61.2	61.2	61.2	36	34.0	2	7	90	0.00	29.938 
22:40	61.0	61.0	61.0	35	33.2	3	9	68	0.00	29.938 
22:45	60.9	60.9	60.9	34	32.3	4	12	90	0.00	29.932 
22:50	60.7	60.7	60.7	34	32.2	3	6	112	0.00	29.932 
22:55	60.5	60.5	60.5	34	32.0	3	6	90	0.00	29.932 
23:00	60.4	60.4	60.4	34	31.9	3	7	112	0.00	29.928 
23:05	60.2	60.2	60.2	34	31.7	3	7	90	0.00	29.928 
23:10	60.2	60.2	60.2	35	32.4	3	5	112	0.00	29.928 
23:15	60.1	60.1	60.1	35	32.4	3	5	90	0.00	29.903 
23:20	60.1	60.1	60.1	35	32.4	2	5	90	0.00	29.903 
23:25	59.9	59.9	59.9	36	32.9	2	6	90	0.00	29.903 
23:30	59.8	59.8	59.8	36	32.8	3	6	112	0.00	29.898 
23:35	59.6	59.6	59.6	34	31.2	4	7	112	0.00	29.898 
23:40	59.8	59.8	59.8	34	31.4	3	7	112	0.00	29.898 
23:45	59.8	59.8	59.8	32	29.9	3	10	90	0.00	29.890 
23:50	59.6	59.6	59.6	33	30.5	3	6	90	0.00	29.890 
23:55	59.6	59.6	59.6	33	30.5	3	6	90	0.00	29.890 

CoCoRaHS
IN-AL-39
A2 Web Hosting
Creative Commons License
GoDaddy
search engine by freefind advanced

loaded 2018-11-16 11:16:55 • last modified 2010-11-18 10:43:29
Privacy PolicyDisclaimer
• wx.awcolley.com is powered by PmWiki v.2002016 •
• all content (unless otherwise noted) © 2018 A W Colley